<?xml version="1.0" encoding="utf-8"?>
<gpx xmlns:xsi="http://www.w3.org/2001/XMLSchema-instance" xmlns:xsd="http://www.w3.org/2001/XMLSchema" version="1.1" creator="Shapelink.com" xmlns="http://www.topografix.com/GPX/1/1" xmlns:gpxtpx="http://www.garmin.com/xmlschemas/TrackPointExtension/v1">
  <metadata>
    <name>Övrigt 2.26 km, 2019-01-16</name>
    <desc></desc>
    <author><name>Marian Moron</name></author> 
    <time>2019-01-16T20:51:56Z</time>
  </metadata>
  <trk>
    <name>Övrigt 2.26 km, 2019-01-16</name>
    <trkseg>
      <trkpt lat="51.229957491159" lon="4.4582047965378">
        <ele>3.2</ele>
        <time>2019-01-16T20:51:56Z</time>
      </trkpt>
      <trkpt lat="51.230024630204" lon="4.4583910424262">
        <ele>2.8</ele>
        <time>2019-01-16T20:52:14Z</time>
      </trkpt>
      <trkpt lat="51.230031251907" lon="4.4585506338626">
        <ele>2.6</ele>
        <time>2019-01-16T20:52:25Z</time>
      </trkpt>
      <trkpt lat="51.230131583288" lon="4.4587165955454">
        <ele>2.2</ele>
        <time>2019-01-16T20:53:01Z</time>
      </trkpt>
      <trkpt lat="51.230250354856" lon="4.4587302580476">
        <ele>2</ele>
        <time>2019-01-16T20:53:10Z</time>
      </trkpt>
      <trkpt lat="51.23041623272" lon="4.458776358515">
        <ele>1.6</ele>
        <time>2019-01-16T20:53:22Z</time>
      </trkpt>
      <trkpt lat="51.23041799292" lon="4.45880276151">
        <ele>1.6</ele>
        <time>2019-01-16T20:53:23Z</time>
      </trkpt>
      <trkpt lat="51.230424698442" lon="4.4588576629758">
        <ele>1.8</ele>
        <time>2019-01-16T20:53:25Z</time>
      </trkpt>
      <trkpt lat="51.230424698442" lon="4.4588576629758">
        <ele>1.8</ele>
        <time>2019-01-16T20:53:26Z</time>
      </trkpt>
      <trkpt lat="51.230425871909" lon="4.458916420117">
        <ele>1.8</ele>
        <time>2019-01-16T20:53:27Z</time>
      </trkpt>
      <trkpt lat="51.230421513319" lon="4.458937626332">
        <ele>1.8</ele>
        <time>2019-01-16T20:53:29Z</time>
      </trkpt>
      <trkpt lat="51.230412712321" lon="4.4589605089277">
        <ele>1.8</ele>
        <time>2019-01-16T20:53:31Z</time>
      </trkpt>
      <trkpt lat="51.230392763391" lon="4.4589928630739">
        <ele>2</ele>
        <time>2019-01-16T20:53:34Z</time>
      </trkpt>
      <trkpt lat="51.230381950736" lon="4.4590318389237">
        <ele>2</ele>
        <time>2019-01-16T20:53:36Z</time>
      </trkpt>
      <trkpt lat="51.230367952958" lon="4.459061678499">
        <ele>2</ele>
        <time>2019-01-16T20:53:39Z</time>
      </trkpt>
      <trkpt lat="51.230340460315" lon="4.4591001514345">
        <ele>2.2</ele>
        <time>2019-01-16T20:53:43Z</time>
      </trkpt>
      <trkpt lat="51.23030106537" lon="4.4591916818172">
        <ele>2.4</ele>
        <time>2019-01-16T20:53:54Z</time>
      </trkpt>
      <trkpt lat="51.230309866369" lon="4.4594330806285">
        <ele>2.4</ele>
        <time>2019-01-16T20:54:01Z</time>
      </trkpt>
      <trkpt lat="51.230307770893" lon="4.4595388602465">
        <ele>2.4</ele>
        <time>2019-01-16T20:54:04Z</time>
      </trkpt>
      <trkpt lat="51.230317410082" lon="4.4596182368696">
        <ele>2.6</ele>
        <time>2019-01-16T20:54:06Z</time>
      </trkpt>
      <trkpt lat="51.230328977108" lon="4.4596956018358">
        <ele>2.8</ele>
        <time>2019-01-16T20:54:08Z</time>
      </trkpt>
      <trkpt lat="51.230329563841" lon="4.459730302915">
        <ele>3</ele>
        <time>2019-01-16T20:54:09Z</time>
      </trkpt>
      <trkpt lat="51.230351608247" lon="4.4597740564495">
        <ele>3</ele>
        <time>2019-01-16T20:54:11Z</time>
      </trkpt>
      <trkpt lat="51.230381280184" lon="4.4597917422652">
        <ele>3</ele>
        <time>2019-01-16T20:54:13Z</time>
      </trkpt>
      <trkpt lat="51.230400474742" lon="4.4598068296909">
        <ele>3</ele>
        <time>2019-01-16T20:54:15Z</time>
      </trkpt>
      <trkpt lat="51.2304214295" lon="4.4598628208041">
        <ele>3.2</ele>
        <time>2019-01-16T20:54:18Z</time>
      </trkpt>
      <trkpt lat="51.230428470299" lon="4.459915459156">
        <ele>3.2</ele>
        <time>2019-01-16T20:54:21Z</time>
      </trkpt>
      <trkpt lat="51.230429308489" lon="4.4599831011146">
        <ele>3.4</ele>
        <time>2019-01-16T20:54:25Z</time>
      </trkpt>
      <trkpt lat="51.230429140851" lon="4.4600490666926">
        <ele>3.6</ele>
        <time>2019-01-16T20:54:28Z</time>
      </trkpt>
      <trkpt lat="51.23043098487" lon="4.4600717816502">
        <ele>3.6</ele>
        <time>2019-01-16T20:54:29Z</time>
      </trkpt>
      <trkpt lat="51.230568531901" lon="4.4604484643787">
        <ele>3.8</ele>
        <time>2019-01-16T20:54:48Z</time>
      </trkpt>
      <trkpt lat="51.230595521629" lon="4.4605764560401">
        <ele>4</ele>
        <time>2019-01-16T20:54:58Z</time>
      </trkpt>
      <trkpt lat="51.230578925461" lon="4.4606036134064">
        <ele>3.8</ele>
        <time>2019-01-16T20:55:00Z</time>
      </trkpt>
      <trkpt lat="51.23056341894" lon="4.4606682378799">
        <ele>3.8</ele>
        <time>2019-01-16T20:55:07Z</time>
      </trkpt>
      <trkpt lat="51.230472894385" lon="4.4606846664101">
        <ele>3.6</ele>
        <time>2019-01-16T20:55:19Z</time>
      </trkpt>
      <trkpt lat="51.230266112834" lon="4.4606891926378">
        <ele>3.2</ele>
        <time>2019-01-16T20:55:28Z</time>
      </trkpt>
      <trkpt lat="51.230198806152" lon="4.4607232231647">
        <ele>3</ele>
        <time>2019-01-16T20:55:31Z</time>
      </trkpt>
      <trkpt lat="51.23016779311" lon="4.4606952276081">
        <ele>3</ele>
        <time>2019-01-16T20:55:35Z</time>
      </trkpt>
      <trkpt lat="51.230165613815" lon="4.4607036933303">
        <ele>3</ele>
        <time>2019-01-16T20:55:37Z</time>
      </trkpt>
      <trkpt lat="51.230161925778" lon="4.4607079681009">
        <ele>2.8</ele>
        <time>2019-01-16T20:55:38Z</time>
      </trkpt>
      <trkpt lat="51.230159327388" lon="4.460710734129">
        <ele>2.8</ele>
        <time>2019-01-16T20:55:39Z</time>
      </trkpt>
      <trkpt lat="51.230140803382" lon="4.4607355445623">
        <ele>2.8</ele>
        <time>2019-01-16T20:55:42Z</time>
      </trkpt>
      <trkpt lat="51.230112137273" lon="4.4607551582158">
        <ele>2.8</ele>
        <time>2019-01-16T20:55:46Z</time>
      </trkpt>
      <trkpt lat="51.230113562196" lon="4.4607582595199">
        <ele>2.8</ele>
        <time>2019-01-16T20:55:47Z</time>
      </trkpt>
      <trkpt lat="51.230108700693" lon="4.4607590977103">
        <ele>2.8</ele>
        <time>2019-01-16T20:55:48Z</time>
      </trkpt>
      <trkpt lat="51.230107108131" lon="4.4607621151954">
        <ele>2.8</ele>
        <time>2019-01-16T20:55:49Z</time>
      </trkpt>
      <trkpt lat="51.23009763658" lon="4.4607695750892">
        <ele>2.8</ele>
        <time>2019-01-16T20:55:50Z</time>
      </trkpt>
      <trkpt lat="51.230097385123" lon="4.4607704970986">
        <ele>2.8</ele>
        <time>2019-01-16T20:55:51Z</time>
      </trkpt>
      <trkpt lat="51.230099145323" lon="4.4607683178037">
        <ele>2.8</ele>
        <time>2019-01-16T20:55:52Z</time>
      </trkpt>
      <trkpt lat="51.230105180293" lon="4.4607492908835">
        <ele>2.8</ele>
        <time>2019-01-16T20:55:53Z</time>
      </trkpt>
      <trkpt lat="51.23010459356" lon="4.4607406575233">
        <ele>2.8</ele>
        <time>2019-01-16T20:55:54Z</time>
      </trkpt>
      <trkpt lat="51.230104509741" lon="4.4607350416481">
        <ele>2.8</ele>
        <time>2019-01-16T20:55:55Z</time>
      </trkpt>
      <trkpt lat="51.23009679839" lon="4.4607370533049">
        <ele>2.8</ele>
        <time>2019-01-16T20:55:57Z</time>
      </trkpt>
      <trkpt lat="51.230087159202" lon="4.460732024163">
        <ele>2.8</ele>
        <time>2019-01-16T20:55:59Z</time>
      </trkpt>
      <trkpt lat="51.230080286041" lon="4.4607307668775">
        <ele>2.6</ele>
        <time>2019-01-16T20:56:00Z</time>
      </trkpt>
      <trkpt lat="51.230069389567" lon="4.4607269950211">
        <ele>2.6</ele>
        <time>2019-01-16T20:56:01Z</time>
      </trkpt>
      <trkpt lat="51.23002672568" lon="4.4607403222471">
        <ele>2.6</ele>
        <time>2019-01-16T20:56:05Z</time>
      </trkpt>
      <trkpt lat="51.229944834486" lon="4.4608120713383">
        <ele>2.4</ele>
        <time>2019-01-16T20:56:12Z</time>
      </trkpt>
      <trkpt lat="51.229892615229" lon="4.4608542323112">
        <ele>2.2</ele>
        <time>2019-01-16T20:56:17Z</time>
      </trkpt>
      <trkpt lat="51.229850538075" lon="4.4608951359987">
        <ele>2.2</ele>
        <time>2019-01-16T20:56:21Z</time>
      </trkpt>
      <trkpt lat="51.229826565832" lon="4.4609650410712">
        <ele>2</ele>
        <time>2019-01-16T20:56:25Z</time>
      </trkpt>
      <trkpt lat="51.229827236384" lon="4.461041232571">
        <ele>2</ele>
        <time>2019-01-16T20:56:28Z</time>
      </trkpt>
      <trkpt lat="51.229820530862" lon="4.4610552303493">
        <ele>2</ele>
        <time>2019-01-16T20:56:29Z</time>
      </trkpt>
      <trkpt lat="51.229762444273" lon="4.4610704854131">
        <ele>2</ele>
        <time>2019-01-16T20:56:33Z</time>
      </trkpt>
      <trkpt lat="51.229731934145" lon="4.4610751792789">
        <ele>2</ele>
        <time>2019-01-16T20:56:37Z</time>
      </trkpt>
      <trkpt lat="51.229747440666" lon="4.461104767397">
        <ele>2</ele>
        <time>2019-01-16T20:56:44Z</time>
      </trkpt>
      <trkpt lat="51.229796977714" lon="4.461104599759">
        <ele>2</ele>
        <time>2019-01-16T20:56:49Z</time>
      </trkpt>
      <trkpt lat="51.229811394587" lon="4.4611123949289">
        <ele>2</ele>
        <time>2019-01-16T20:56:54Z</time>
      </trkpt>
      <trkpt lat="51.22980418615" lon="4.4611185975373">
        <ele>2</ele>
        <time>2019-01-16T20:56:59Z</time>
      </trkpt>
      <trkpt lat="51.229819692671" lon="4.4611381273717">
        <ele>2</ele>
        <time>2019-01-16T20:57:05Z</time>
      </trkpt>
      <trkpt lat="51.229838635772" lon="4.4612127263099">
        <ele>2.2</ele>
        <time>2019-01-16T20:57:12Z</time>
      </trkpt>
      <trkpt lat="51.229872750118" lon="4.4613130576909">
        <ele>2.4</ele>
        <time>2019-01-16T20:57:19Z</time>
      </trkpt>
      <trkpt lat="51.229923628271" lon="4.4614685419947">
        <ele>2.4</ele>
        <time>2019-01-16T20:57:30Z</time>
      </trkpt>
      <trkpt lat="51.229954054579" lon="4.4616018980742">
        <ele>2.6</ele>
        <time>2019-01-16T20:57:43Z</time>
      </trkpt>
      <trkpt lat="51.229943325743" lon="4.4616193324327">
        <ele>2.6</ele>
        <time>2019-01-16T20:57:50Z</time>
      </trkpt>
      <trkpt lat="51.229941733181" lon="4.4616297259927">
        <ele>2.6</ele>
        <time>2019-01-16T20:57:51Z</time>
      </trkpt>
      <trkpt lat="51.229946343228" lon="4.4616960268468">
        <ele>2.6</ele>
        <time>2019-01-16T20:57:57Z</time>
      </trkpt>
      <trkpt lat="51.229974254966" lon="4.4617984537035">
        <ele>2.6</ele>
        <time>2019-01-16T20:58:03Z</time>
      </trkpt>
      <trkpt lat="51.229982636869" lon="4.4618484936655">
        <ele>2.6</ele>
        <time>2019-01-16T20:58:06Z</time>
      </trkpt>
      <trkpt lat="51.22998598963" lon="4.461860479787">
        <ele>2.8</ele>
        <time>2019-01-16T20:58:07Z</time>
      </trkpt>
      <trkpt lat="51.230086991563" lon="4.4620770681649">
        <ele>3</ele>
        <time>2019-01-16T20:58:27Z</time>
      </trkpt>
      <trkpt lat="51.230139881372" lon="4.4622258469462">
        <ele>3.2</ele>
        <time>2019-01-16T20:58:34Z</time>
      </trkpt>
      <trkpt lat="51.230221018195" lon="4.4625538308173">
        <ele>3.8</ele>
        <time>2019-01-16T20:58:51Z</time>
      </trkpt>
      <trkpt lat="51.230252953246" lon="4.4628269132227">
        <ele>4.2</ele>
        <time>2019-01-16T20:59:09Z</time>
      </trkpt>
      <trkpt lat="51.230303160846" lon="4.4629406556487">
        <ele>4</ele>
        <time>2019-01-16T20:59:15Z</time>
      </trkpt>
      <trkpt lat="51.23037985526" lon="4.4632537197322">
        <ele>4</ele>
        <time>2019-01-16T20:59:36Z</time>
      </trkpt>
      <trkpt lat="51.230385722592" lon="4.4633657857776">
        <ele>3.8</ele>
        <time>2019-01-16T20:59:43Z</time>
      </trkpt>
      <trkpt lat="51.230335263535" lon="4.4636609125882">
        <ele>4</ele>
        <time>2019-01-16T20:59:57Z</time>
      </trkpt>
      <trkpt lat="51.230314224958" lon="4.4638246111572">
        <ele>4</ele>
        <time>2019-01-16T21:00:30Z</time>
      </trkpt>
      <trkpt lat="51.230311039835" lon="4.4638278800994">
        <ele>4</ele>
        <time>2019-01-16T21:00:41Z</time>
      </trkpt>
      <trkpt lat="51.230307267979" lon="4.463834585622">
        <ele>4</ele>
        <time>2019-01-16T21:00:48Z</time>
      </trkpt>
      <trkpt lat="51.230274159461" lon="4.4638676941395">
        <ele>4</ele>
        <time>2019-01-16T21:00:53Z</time>
      </trkpt>
      <trkpt lat="51.230251947418" lon="4.463871801272">
        <ele>4</ele>
        <time>2019-01-16T21:00:59Z</time>
      </trkpt>
      <trkpt lat="51.230228310451" lon="4.4638468232006">
        <ele>4</ele>
        <time>2019-01-16T21:01:10Z</time>
      </trkpt>
      <trkpt lat="51.230198303238" lon="4.4638441409916">
        <ele>4</ele>
        <time>2019-01-16T21:01:28Z</time>
      </trkpt>
      <trkpt lat="51.230148933828" lon="4.4639040715992">
        <ele>4</ele>
        <time>2019-01-16T21:01:43Z</time>
      </trkpt>
      <trkpt lat="51.230132840574" lon="4.4639175664634">
        <ele>4</ele>
        <time>2019-01-16T21:01:45Z</time>
      </trkpt>
      <trkpt lat="51.230127392337" lon="4.4639239367098">
        <ele>4</ele>
        <time>2019-01-16T21:01:46Z</time>
      </trkpt>
      <trkpt lat="51.230123452842" lon="4.4639262836426">
        <ele>4</ele>
        <time>2019-01-16T21:01:47Z</time>
      </trkpt>
      <trkpt lat="51.230117836967" lon="4.4639295525849">
        <ele>4</ele>
        <time>2019-01-16T21:01:48Z</time>
      </trkpt>
      <trkpt lat="51.230113562196" lon="4.46393257007">
        <ele>4</ele>
        <time>2019-01-16T21:01:49Z</time>
      </trkpt>
      <trkpt lat="51.230083974078" lon="4.4639909081161">
        <ele>4</ele>
        <time>2019-01-16T21:01:56Z</time>
      </trkpt>
      <trkpt lat="51.230039801449" lon="4.4640877190977">
        <ele>4</ele>
        <time>2019-01-16T21:02:05Z</time>
      </trkpt>
      <trkpt lat="51.230031754822" lon="4.4640952628106">
        <ele>4</ele>
        <time>2019-01-16T21:02:06Z</time>
      </trkpt>
      <trkpt lat="51.230011051521" lon="4.4641170557588">
        <ele>4</ele>
        <time>2019-01-16T21:02:09Z</time>
      </trkpt>
      <trkpt lat="51.229972494766" lon="4.4641407765448">
        <ele>4</ele>
        <time>2019-01-16T21:02:13Z</time>
      </trkpt>
      <trkpt lat="51.229945756495" lon="4.4641514215618">
        <ele>4</ele>
        <time>2019-01-16T21:02:16Z</time>
      </trkpt>
      <trkpt lat="51.229922454804" lon="4.4641536008567">
        <ele>4</ele>
        <time>2019-01-16T21:02:18Z</time>
      </trkpt>
      <trkpt lat="51.229521045461" lon="4.4641134515405">
        <ele>6.8</ele>
        <time>2019-01-16T21:03:13Z</time>
      </trkpt>
      <trkpt lat="51.229484332725" lon="4.4641178101301">
        <ele>7.2</ele>
        <time>2019-01-16T21:03:16Z</time>
      </trkpt>
      <trkpt lat="51.229440411553" lon="4.4641292933375">
        <ele>7.8</ele>
        <time>2019-01-16T21:03:20Z</time>
      </trkpt>
      <trkpt lat="51.229402776808" lon="4.4641375076026">
        <ele>8</ele>
        <time>2019-01-16T21:03:24Z</time>
      </trkpt>
      <trkpt lat="51.229371009395" lon="4.4641474820673">
        <ele>8.2</ele>
        <time>2019-01-16T21:03:27Z</time>
      </trkpt>
      <trkpt lat="51.229348462075" lon="4.4641609769315">
        <ele>8.4</ele>
        <time>2019-01-16T21:03:31Z</time>
      </trkpt>
      <trkpt lat="51.229201192036" lon="4.4642524234951">
        <ele>9.2</ele>
        <time>2019-01-16T21:03:51Z</time>
      </trkpt>
      <trkpt lat="51.229163222015" lon="4.4642561115324">
        <ele>9.4</ele>
        <time>2019-01-16T21:03:55Z</time>
      </trkpt>
      <trkpt lat="51.229152157903" lon="4.4642584584653">
        <ele>9.4</ele>
        <time>2019-01-16T21:03:56Z</time>
      </trkpt>
      <trkpt lat="51.22914117761" lon="4.4642644934356">
        <ele>9.4</ele>
        <time>2019-01-16T21:03:57Z</time>
      </trkpt>
      <trkpt lat="51.229115277529" lon="4.464273462072">
        <ele>9.6</ele>
        <time>2019-01-16T21:03:58Z</time>
      </trkpt>
      <trkpt lat="51.229115277529" lon="4.464273462072">
        <ele>9.6</ele>
        <time>2019-01-16T21:03:59Z</time>
      </trkpt>
      <trkpt lat="51.229102788493" lon="4.4642789103091">
        <ele>9.8</ele>
        <time>2019-01-16T21:04:00Z</time>
      </trkpt>
      <trkpt lat="51.229088706896" lon="4.46427882649">
        <ele>9.8</ele>
        <time>2019-01-16T21:04:01Z</time>
      </trkpt>
      <trkpt lat="51.228999104351" lon="4.4643087498844">
        <ele>10.4</ele>
        <time>2019-01-16T21:04:11Z</time>
      </trkpt>
      <trkpt lat="51.229001618922" lon="4.4643169641495">
        <ele>10.4</ele>
        <time>2019-01-16T21:04:13Z</time>
      </trkpt>
      <trkpt lat="51.229004133493" lon="4.4643202330917">
        <ele>10.2</ele>
        <time>2019-01-16T21:04:14Z</time>
      </trkpt>
      <trkpt lat="51.229005055502" lon="4.4643223285675">
        <ele>10.2</ele>
        <time>2019-01-16T21:04:19Z</time>
      </trkpt>
      <trkpt lat="51.229005390778" lon="4.4643224962056">
        <ele>10.2</ele>
        <time>2019-01-16T21:04:20Z</time>
      </trkpt>
      <trkpt lat="51.229005558416" lon="4.4643226638436">
        <ele>10.2</ele>
        <time>2019-01-16T21:04:21Z</time>
      </trkpt>
      <trkpt lat="51.229000780731" lon="4.4643228314817">
        <ele>10.2</ele>
        <time>2019-01-16T21:04:24Z</time>
      </trkpt>
      <trkpt lat="51.228983514011" lon="4.4643234182149">
        <ele>10.4</ele>
        <time>2019-01-16T21:04:26Z</time>
      </trkpt>
      <trkpt lat="51.228926265612" lon="4.4643271900713">
        <ele>11</ele>
        <time>2019-01-16T21:04:36Z</time>
      </trkpt>
      <trkpt lat="51.228832723573" lon="4.4643424451351">
        <ele>11.8</ele>
        <time>2019-01-16T21:04:53Z</time>
      </trkpt>
      <trkpt lat="51.22882258147" lon="4.4643254298717">
        <ele>12</ele>
        <time>2019-01-16T21:05:09Z</time>
      </trkpt>
      <trkpt lat="51.228775894269" lon="4.4641954265535">
        <ele>13</ele>
        <time>2019-01-16T21:05:23Z</time>
      </trkpt>
      <trkpt lat="51.228712024167" lon="4.4641563668847">
        <ele>13.8</ele>
        <time>2019-01-16T21:05:32Z</time>
      </trkpt>
      <trkpt lat="51.228692829609" lon="4.4641868770123">
        <ele>14</ele>
        <time>2019-01-16T21:05:38Z</time>
      </trkpt>
      <trkpt lat="51.228638682514" lon="4.4642067421228">
        <ele>14.2</ele>
        <time>2019-01-16T21:05:47Z</time>
      </trkpt>
      <trkpt lat="51.228588726372" lon="4.4639049936086">
        <ele>16</ele>
        <time>2019-01-16T21:06:31Z</time>
      </trkpt>
      <trkpt lat="51.228532819077" lon="4.4634432345629">
        <ele>16</ele>
        <time>2019-01-16T21:07:05Z</time>
      </trkpt>
      <trkpt lat="51.22846676968" lon="4.4634097069502">
        <ele>16.4</ele>
        <time>2019-01-16T21:07:11Z</time>
      </trkpt>
      <trkpt lat="51.228298628703" lon="4.4632500316948">
        <ele>17.2</ele>
        <time>2019-01-16T21:07:34Z</time>
      </trkpt>
      <trkpt lat="51.22799419798" lon="4.4628448504955">
        <ele>15</ele>
        <time>2019-01-16T21:09:23Z</time>
      </trkpt>
      <trkpt lat="51.227957569063" lon="4.4624802377075">
        <ele>13.4</ele>
        <time>2019-01-16T21:09:50Z</time>
      </trkpt>
      <trkpt lat="51.227964190766" lon="4.4623242504895">
        <ele>12.4</ele>
        <time>2019-01-16T21:09:58Z</time>
      </trkpt>
      <trkpt lat="51.227964190766" lon="4.4620081689209">
        <ele>10.6</ele>
        <time>2019-01-16T21:10:16Z</time>
      </trkpt>
      <trkpt lat="51.227952037007" lon="4.4616804365069">
        <ele>9.2</ele>
        <time>2019-01-16T21:10:31Z</time>
      </trkpt>
      <trkpt lat="51.227839635685" lon="4.461205182597">
        <ele>6.8</ele>
        <time>2019-01-16T21:10:54Z</time>
      </trkpt>
      <trkpt lat="51.227831924334" lon="4.4611001573503">
        <ele>6.6</ele>
        <time>2019-01-16T21:10:59Z</time>
      </trkpt>
      <trkpt lat="51.227838797495" lon="4.4610455911607">
        <ele>6.6</ele>
        <time>2019-01-16T21:11:02Z</time>
      </trkpt>
      <trkpt lat="51.227837288752" lon="4.4609995745122">
        <ele>6.4</ele>
        <time>2019-01-16T21:11:04Z</time>
      </trkpt>
      <trkpt lat="51.227834690362" lon="4.4608969800174">
        <ele>6.4</ele>
        <time>2019-01-16T21:11:15Z</time>
      </trkpt>
      <trkpt lat="51.227942481637" lon="4.4606124144047">
        <ele>5.2</ele>
        <time>2019-01-16T21:11:35Z</time>
      </trkpt>
      <trkpt lat="51.227991431952" lon="4.4605384021997">
        <ele>5</ele>
        <time>2019-01-16T21:11:42Z</time>
      </trkpt>
      <trkpt lat="51.22812227346" lon="4.4604985881597">
        <ele>4.6</ele>
        <time>2019-01-16T21:11:51Z</time>
      </trkpt>
      <trkpt lat="51.228218749166" lon="4.4603978376836">
        <ele>4</ele>
        <time>2019-01-16T21:11:58Z</time>
      </trkpt>
      <trkpt lat="51.228266190737" lon="4.4602899625897">
        <ele>3.6</ele>
        <time>2019-01-16T21:12:05Z</time>
      </trkpt>
      <trkpt lat="51.228269375861" lon="4.4602700974792">
        <ele>3.6</ele>
        <time>2019-01-16T21:12:06Z</time>
      </trkpt>
      <trkpt lat="51.228278679773" lon="4.4602504838258">
        <ele>3.6</ele>
        <time>2019-01-16T21:12:07Z</time>
      </trkpt>
      <trkpt lat="51.228289911523" lon="4.460229780525">
        <ele>3.4</ele>
        <time>2019-01-16T21:12:08Z</time>
      </trkpt>
      <trkpt lat="51.228306926787" lon="4.4601979292929">
        <ele>3.4</ele>
        <time>2019-01-16T21:12:09Z</time>
      </trkpt>
      <trkpt lat="51.228329222649" lon="4.4601592049003">
        <ele>3.4</ele>
        <time>2019-01-16T21:12:10Z</time>
      </trkpt>
      <trkpt lat="51.228358643129" lon="4.4600877072662">
        <ele>3.2</ele>
        <time>2019-01-16T21:12:12Z</time>
      </trkpt>
      <trkpt lat="51.228364510462" lon="4.460058202967">
        <ele>3</ele>
        <time>2019-01-16T21:12:13Z</time>
      </trkpt>
      <trkpt lat="51.228368869051" lon="4.460031548515">
        <ele>3</ele>
        <time>2019-01-16T21:12:14Z</time>
      </trkpt>
      <trkpt lat="51.228366186842" lon="4.4600027985871">
        <ele>3</ele>
        <time>2019-01-16T21:12:15Z</time>
      </trkpt>
      <trkpt lat="51.228361995891" lon="4.4599784910679">
        <ele>3</ele>
        <time>2019-01-16T21:12:16Z</time>
      </trkpt>
      <trkpt lat="51.228371718898" lon="4.4599660858512">
        <ele>3</ele>
        <time>2019-01-16T21:12:17Z</time>
      </trkpt>
      <trkpt lat="51.228383621201" lon="4.4598960131407">
        <ele>2.8</ele>
        <time>2019-01-16T21:12:20Z</time>
      </trkpt>
      <trkpt lat="51.228390075266" lon="4.4598722085357">
        <ele>2.8</ele>
        <time>2019-01-16T21:12:21Z</time>
      </trkpt>
      <trkpt lat="51.228408683091" lon="4.4598168041557">
        <ele>2.6</ele>
        <time>2019-01-16T21:12:23Z</time>
      </trkpt>
      <trkpt lat="51.22845377773" lon="4.4597360864282">
        <ele>2.8</ele>
        <time>2019-01-16T21:12:27Z</time>
      </trkpt>
      <trkpt lat="51.228464338928" lon="4.4597153831273">
        <ele>2.8</ele>
        <time>2019-01-16T21:12:28Z</time>
      </trkpt>
      <trkpt lat="51.228501973674" lon="4.459587642923">
        <ele>2.8</ele>
        <time>2019-01-16T21:12:34Z</time>
      </trkpt>
      <trkpt lat="51.228513456881" lon="4.4594547897577">
        <ele>3</ele>
        <time>2019-01-16T21:12:40Z</time>
      </trkpt>
      <trkpt lat="51.228558886796" lon="4.4593505188823">
        <ele>3</ele>
        <time>2019-01-16T21:12:44Z</time>
      </trkpt>
      <trkpt lat="51.228574393317" lon="4.459135690704">
        <ele>3</ele>
        <time>2019-01-16T21:12:53Z</time>
      </trkpt>
      <trkpt lat="51.228657709435" lon="4.4588961359113">
        <ele>3</ele>
        <time>2019-01-16T21:13:03Z</time>
      </trkpt>
      <trkpt lat="51.228673802689" lon="4.4585443474352">
        <ele>3</ele>
        <time>2019-01-16T21:13:17Z</time>
      </trkpt>
      <trkpt lat="51.228654691949" lon="4.4584306888282">
        <ele>3</ele>
        <time>2019-01-16T21:13:22Z</time>
      </trkpt>
      <trkpt lat="51.228657038882" lon="4.4584076385945">
        <ele>3</ele>
        <time>2019-01-16T21:13:23Z</time>
      </trkpt>
      <trkpt lat="51.228670449927" lon="4.4583554193377">
        <ele>3</ele>
        <time>2019-01-16T21:13:25Z</time>
      </trkpt>
      <trkpt lat="51.228680089116" lon="4.4583302736282">
        <ele>3</ele>
        <time>2019-01-16T21:13:26Z</time>
      </trkpt>
      <trkpt lat="51.228729039431" lon="4.458216028288">
        <ele>2.8</ele>
        <time>2019-01-16T21:13:31Z</time>
      </trkpt>
      <trkpt lat="51.228755274788" lon="4.4581890385598">
        <ele>2.6</ele>
        <time>2019-01-16T21:13:33Z</time>
      </trkpt>
      <trkpt lat="51.228815792128" lon="4.4581529125571">
        <ele>2.6</ele>
        <time>2019-01-16T21:13:37Z</time>
      </trkpt>
      <trkpt lat="51.228831633925" lon="4.4581470452249">
        <ele>2.6</ele>
        <time>2019-01-16T21:13:38Z</time>
      </trkpt>
      <trkpt lat="51.228844542056" lon="4.4581443630159">
        <ele>2.6</ele>
        <time>2019-01-16T21:13:39Z</time>
      </trkpt>
      <trkpt lat="51.228920565918" lon="4.458126258105">
        <ele>2.4</ele>
        <time>2019-01-16T21:13:45Z</time>
      </trkpt>
      <trkpt lat="51.228937245905" lon="4.4581202231348">
        <ele>2.4</ele>
        <time>2019-01-16T21:13:46Z</time>
      </trkpt>
      <trkpt lat="51.22895417735" lon="4.4581194687635">
        <ele>2.4</ele>
        <time>2019-01-16T21:13:47Z</time>
      </trkpt>
      <trkpt lat="51.228968426585" lon="4.4581197202206">
        <ele>2.4</ele>
        <time>2019-01-16T21:13:48Z</time>
      </trkpt>
      <trkpt lat="51.228983933106" lon="4.4581195525825">
        <ele>2.4</ele>
        <time>2019-01-16T21:13:49Z</time>
      </trkpt>
      <trkpt lat="51.228999774903" lon="4.4581177085638">
        <ele>2.4</ele>
        <time>2019-01-16T21:13:50Z</time>
      </trkpt>
      <trkpt lat="51.229025507346" lon="4.458118127659">
        <ele>2.4</ele>
        <time>2019-01-16T21:13:51Z</time>
      </trkpt>
      <trkpt lat="51.229075463489" lon="4.4581204745919">
        <ele>2.4</ele>
        <time>2019-01-16T21:13:53Z</time>
      </trkpt>
      <trkpt lat="51.229310072958" lon="4.4580398406833">
        <ele>2.6</ele>
        <time>2019-01-16T21:14:02Z</time>
      </trkpt>
      <trkpt lat="51.229350557551" lon="4.4580224901438">
        <ele>2.8</ele>
        <time>2019-01-16T21:14:04Z</time>
      </trkpt>
      <trkpt lat="51.229390706867" lon="4.4580104202032">
        <ele>2.8</ele>
        <time>2019-01-16T21:14:06Z</time>
      </trkpt>
      <trkpt lat="51.229423563927" lon="4.4579929020256">
        <ele>3</ele>
        <time>2019-01-16T21:14:08Z</time>
      </trkpt>
      <trkpt lat="51.229442004114" lon="4.4579879567027">
        <ele>3</ele>
        <time>2019-01-16T21:14:09Z</time>
      </trkpt>
      <trkpt lat="51.229455163702" lon="4.4579848553985">
        <ele>3</ele>
        <time>2019-01-16T21:14:10Z</time>
      </trkpt>
      <trkpt lat="51.229480057955" lon="4.4579773116857">
        <ele>3</ele>
        <time>2019-01-16T21:14:13Z</time>
      </trkpt>
      <trkpt lat="51.229533785954" lon="4.4579484779388">
        <ele>3.2</ele>
        <time>2019-01-16T21:14:19Z</time>
      </trkpt>
      <trkpt lat="51.229586340487" lon="4.4579255115241">
        <ele>3.4</ele>
        <time>2019-01-16T21:14:25Z</time>
      </trkpt>
      <trkpt lat="51.229713661596" lon="4.4579317141324">
        <ele>3.6</ele>
        <time>2019-01-16T21:14:32Z</time>
      </trkpt>
      <trkpt lat="51.229782728478" lon="4.4579255953431">
        <ele>3.8</ele>
        <time>2019-01-16T21:14:35Z</time>
      </trkpt>
      <trkpt lat="51.229819944128" lon="4.4579921476543">
        <ele>3.8</ele>
        <time>2019-01-16T21:14:39Z</time>
      </trkpt>
      <trkpt lat="51.229755319655" lon="4.4580393377692">
        <ele>3.6</ele>
        <time>2019-01-16T21:14:44Z</time>
      </trkpt>
      <trkpt lat="51.229702597484" lon="4.4580270163715">
        <ele>3.6</ele>
        <time>2019-01-16T21:14:49Z</time>
      </trkpt>
      <trkpt lat="51.229697568342" lon="4.4580116774887">
        <ele>3.6</ele>
        <time>2019-01-16T21:14:54Z</time>
      </trkpt>
      <trkpt lat="51.229695724323" lon="4.4580313749611">
        <ele>3.6</ele>
        <time>2019-01-16T21:14:58Z</time>
      </trkpt>
      <trkpt lat="51.229694131762" lon="4.4580358173698">
        <ele>3.6</ele>
        <time>2019-01-16T21:15:04Z</time>
      </trkpt>
      <trkpt lat="51.229682732373" lon="4.4579820055515">
        <ele>3.6</ele>
        <time>2019-01-16T21:15:15Z</time>
      </trkpt>
      <trkpt lat="51.229683570564" lon="4.4579830113798">
        <ele>3.6</ele>
        <time>2019-01-16T21:15:16Z</time>
      </trkpt>
      <trkpt lat="51.229666052386" lon="4.4579850230366">
        <ele>3.6</ele>
        <time>2019-01-16T21:15:22Z</time>
      </trkpt>
      <trkpt lat="51.229611737654" lon="4.4579820055515">
        <ele>3.4</ele>
        <time>2019-01-16T21:15:29Z</time>
      </trkpt>
      <trkpt lat="51.229495983571" lon="4.4579789042473">
        <ele>3.2</ele>
        <time>2019-01-16T21:15:36Z</time>
      </trkpt>
      <trkpt lat="51.229190211743" lon="4.4579732045531">
        <ele>2.4</ele>
        <time>2019-01-16T21:15:57Z</time>
      </trkpt>
      <trkpt lat="51.228798441589" lon="4.4580952450633">
        <ele>2.6</ele>
        <time>2019-01-16T21:16:24Z</time>
      </trkpt>
      <trkpt lat="51.228595599532" lon="4.4582063052803">
        <ele>2.8</ele>
        <time>2019-01-16T21:16:41Z</time>
      </trkpt>
      <trkpt lat="51.228557461873" lon="4.458239749074">
        <ele>3</ele>
        <time>2019-01-16T21:16:45Z</time>
      </trkpt>
      <trkpt lat="51.228715460747" lon="4.4588308408856">
        <ele>3</ele>
        <time>2019-01-16T21:17:13Z</time>
      </trkpt>
      <trkpt lat="51.228713197634" lon="4.4590916857123">
        <ele>3</ele>
        <time>2019-01-16T21:17:26Z</time>
      </trkpt>
      <trkpt lat="51.228672880679" lon="4.4592200964689">
        <ele>3</ele>
        <time>2019-01-16T21:17:32Z</time>
      </trkpt>
      <trkpt lat="51.228604232892" lon="4.4593113753945">
        <ele>3</ele>
        <time>2019-01-16T21:17:38Z</time>
      </trkpt>
      <trkpt lat="51.228424608707" lon="4.4599408563226">
        <ele>2.8</ele>
        <time>2019-01-16T21:18:17Z</time>
      </trkpt>
      <trkpt lat="51.228214306757" lon="4.4603290222585">
        <ele>3.8</ele>
        <time>2019-01-16T21:18:41Z</time>
      </trkpt>
      <trkpt lat="51.228278344497" lon="4.4604453630745">
        <ele>4</ele>
        <time>2019-01-16T21:18:49Z</time>
      </trkpt>
      <trkpt lat="51.228408347815" lon="4.4605630449951">
        <ele>4.2</ele>
        <time>2019-01-16T21:19:00Z</time>
      </trkpt>
      <trkpt lat="51.228509685025" lon="4.4606829062104">
        <ele>4.4</ele>
        <time>2019-01-16T21:19:08Z</time>
      </trkpt>
      <trkpt lat="51.228649578989" lon="4.4608560763299">
        <ele>4.6</ele>
        <time>2019-01-16T21:19:22Z</time>
      </trkpt>
      <trkpt lat="51.228993823752" lon="4.4612838048488">
        <ele>5.2</ele>
        <time>2019-01-16T21:19:54Z</time>
      </trkpt>
      <trkpt lat="51.228972449899" lon="4.4615929294378">
        <ele>6.4</ele>
        <time>2019-01-16T21:20:07Z</time>
      </trkpt>
      <trkpt lat="51.228962056339" lon="4.4616914168">
        <ele>6.8</ele>
        <time>2019-01-16T21:20:13Z</time>
      </trkpt>
      <trkpt lat="51.228914447129" lon="4.4618065841496">
        <ele>7.4</ele>
        <time>2019-01-16T21:20:26Z</time>
      </trkpt>
      <trkpt lat="51.228896426037" lon="4.4618292991072">
        <ele>7.6</ele>
        <time>2019-01-16T21:20:28Z</time>
      </trkpt>
      <trkpt lat="51.228760303929" lon="4.4618090987206">
        <ele>7.8</ele>
        <time>2019-01-16T21:20:40Z</time>
      </trkpt>
      <trkpt lat="51.228743121028" lon="4.4617903232574">
        <ele>7.8</ele>
        <time>2019-01-16T21:20:41Z</time>
      </trkpt>
      <trkpt lat="51.228558635339" lon="4.4616155605763">
        <ele>7.6</ele>
        <time>2019-01-16T21:20:56Z</time>
      </trkpt>
      <trkpt lat="51.228422597051" lon="4.4608911965042">
        <ele>5.4</ele>
        <time>2019-01-16T21:21:30Z</time>
      </trkpt>
      <trkpt lat="51.228421004489" lon="4.4607547391206">
        <ele>4.8</ele>
        <time>2019-01-16T21:21:36Z</time>
      </trkpt>
      <trkpt lat="51.228459142148" lon="4.4606418348849">
        <ele>4.4</ele>
        <time>2019-01-16T21:26:50Z</time>
      </trkpt>
      <trkpt lat="51.228459058329" lon="4.4606418348849">
        <ele>4.4</ele>
        <time>2019-01-16T21:26:51Z</time>
      </trkpt>
      <trkpt lat="51.228458387777" lon="4.4606587663293">
        <ele>4.4</ele>
        <time>2019-01-16T21:26:55Z</time>
      </trkpt>
      <trkpt lat="51.228318074718" lon="4.4605529867113">
        <ele>4.4</ele>
        <time>2019-01-16T21:27:17Z</time>
      </trkpt>
      <trkpt lat="51.228254958987" lon="4.4605104904622">
        <ele>4.4</ele>
        <time>2019-01-16T21:27:23Z</time>
      </trkpt>
      <trkpt lat="51.228252444416" lon="4.4604668207467">
        <ele>4.2</ele>
        <time>2019-01-16T21:27:25Z</time>
      </trkpt>
      <trkpt lat="51.228260239586" lon="4.4603982567787">
        <ele>4</ele>
        <time>2019-01-16T21:27:28Z</time>
      </trkpt>
      <trkpt lat="51.228269794956" lon="4.4603635556996">
        <ele>3.8</ele>
        <time>2019-01-16T21:27:30Z</time>
      </trkpt>
      <trkpt lat="51.228283122182" lon="4.4603205565363">
        <ele>3.6</ele>
        <time>2019-01-16T21:27:33Z</time>
      </trkpt>
      <trkpt lat="51.228325031698" lon="4.4601183850318">
        <ele>3.2</ele>
        <time>2019-01-16T21:27:44Z</time>
      </trkpt>
      <trkpt lat="51.228441456333" lon="4.4595754891634">
        <ele>3</ele>
        <time>2019-01-16T21:28:12Z</time>
      </trkpt>
      <trkpt lat="51.228483784944" lon="4.4592976290733">
        <ele>3</ele>
        <time>2019-01-16T21:28:28Z</time>
      </trkpt>
      <trkpt lat="51.228544218466" lon="4.4589735846967">
        <ele>3</ele>
        <time>2019-01-16T21:28:47Z</time>
      </trkpt>
      <trkpt lat="51.228546649218" lon="4.4586425833404">
        <ele>3</ele>
        <time>2019-01-16T21:29:07Z</time>
      </trkpt>
      <trkpt lat="51.228904891759" lon="4.4582376535982">
        <ele>2.6</ele>
        <time>2019-01-16T21:29:56Z</time>
      </trkpt>
      <trkpt lat="51.229105051607" lon="4.4580752961338">
        <ele>2.2</ele>
        <time>2019-01-16T21:30:19Z</time>
      </trkpt>
      <trkpt lat="51.229446111247" lon="4.4579666666687">
        <ele>3</ele>
        <time>2019-01-16T21:30:48Z</time>
      </trkpt>
      <trkpt lat="51.229561278597" lon="4.4579684268683">
        <ele>3.2</ele>
        <time>2019-01-16T21:30:57Z</time>
      </trkpt>
      <trkpt lat="51.229682313278" lon="4.4579991046339">
        <ele>3.6</ele>
        <time>2019-01-16T21:31:09Z</time>
      </trkpt>
    </trkseg>
  </trk>
</gpx>